sensor_id;sensor_type;location;lat;lon;timestamp;P1;durP1;ratioP1;P2;durP2;ratioP2
28296;SDS011;62078;49.366;8.172;2023-04-03T00:02:19;3.72;;;1.55;;
28296;SDS011;62078;49.366;8.172;2023-04-03T00:04:44;2.92;;;1.48;;
28296;SDS011;62078;49.366;8.172;2023-04-03T00:07:10;2.72;;;1.30;;
28296;SDS011;62078;49.366;8.172;2023-04-03T00:09:37;3.80;;;1.83;;
28296;SDS011;62078;49.366;8.172;2023-04-03T00:12:03;4.72;;;1.60;;
28296;SDS011;62078;49.366;8.172;2023-04-03T00:14:29;3.35;;;1.90;;
28296;SDS011;62078;49.366;8.172;2023-04-03T00:16:55;3.88;;;1.80;;
28296;SDS011;62078;49.366;8.172;2023-04-03T00:19:21;3.65;;;1.70;;
28296;SDS011;62078;49.366;8.172;2023-04-03T00:21:46;4.05;;;1.50;;
28296;SDS011;62078;49.366;8.172;2023-04-03T00:24:12;3.17;;;1.48;;
28296;SDS011;62078;49.366;8.172;2023-04-03T00:26:38;3.03;;;1.42;;
28296;SDS011;62078;49.366;8.172;2023-04-03T00:29:04;3.90;;;1.65;;
28296;SDS011;62078;49.366;8.172;2023-04-03T00:31:30;3.33;;;1.63;;
28296;SDS011;62078;49.366;8.172;2023-04-03T00:33:56;3.70;;;1.77;;
28296;SDS011;62078;49.366;8.172;2023-04-03T00:36:21;3.08;;;1.40;;
28296;SDS011;62078;49.366;8.172;2023-04-03T00:38:47;3.22;;;1.50;;
28296;SDS011;62078;49.366;8.172;2023-04-03T00:41:13;3.50;;;1.58;;
28296;SDS011;62078;49.366;8.172;2023-04-03T00:43:39;3.47;;;1.60;;
28296;SDS011;62078;49.366;8.172;2023-04-03T00:46:05;3.83;;;1.50;;
28296;SDS011;62078;49.366;8.172;2023-04-03T00:48:31;2.70;;;1.30;;
28296;SDS011;62078;49.366;8.172;2023-04-03T00:51:02;3.22;;;1.67;;
28296;SDS011;62078;49.366;8.172;2023-04-03T00:53:33;4.20;;;1.40;;
28296;SDS011;62078;49.366;8.172;2023-04-03T00:56:21;3.53;;;1.45;;
28296;SDS011;62078;49.366;8.172;2023-04-03T01:01:23;3.30;;;1.50;;
28296;SDS011;62078;49.366;8.172;2023-04-03T01:03:51;3.45;;;1.23;;
28296;SDS011;62078;49.366;8.172;2023-04-03T01:06:18;3.20;;;1.40;;
28296;SDS011;62078;49.366;8.172;2023-04-03T01:08:48;5.47;;;1.63;;
28296;SDS011;62078;49.366;8.172;2023-04-03T01:11:15;4.18;;;1.75;;
28296;SDS011;62078;49.366;8.172;2023-04-03T01:13:41;2.80;;;1.50;;
28296;SDS011;62078;49.366;8.172;2023-04-03T01:16:07;2.25;;;1.30;;
28296;SDS011;62078;49.366;8.172;2023-04-03T01:18:34;2.97;;;1.40;;
28296;SDS011;62078;49.366;8.172;2023-04-03T01:24:17;3.42;;;1.58;;
28296;SDS011;62078;49.366;8.172;2023-04-03T01:27:01;5.28;;;1.50;;
28296;SDS011;62078;49.366;8.172;2023-04-03T01:29:29;4.20;;;1.83;;
28296;SDS011;62078;49.366;8.172;2023-04-03T01:31:56;2.78;;;1.30;;
28296;SDS011;62078;49.366;8.172;2023-04-03T01:34:24;5.40;;;1.48;;
28296;SDS011;62078;49.366;8.172;2023-04-03T01:36:50;3.72;;;1.60;;
28296;SDS011;62078;49.366;8.172;2023-04-03T01:39:17;2.78;;;1.30;;
28296;SDS011;62078;49.366;8.172;2023-04-03T01:41:43;2.90;;;1.20;;
28296;SDS011;62078;49.366;8.172;2023-04-03T01:44:09;4.32;;;1.75;;
28296;SDS011;62078;49.366;8.172;2023-04-03T01:46:35;2.53;;;1.30;;
28296;SDS011;62078;49.366;8.172;2023-04-03T01:49:02;3.88;;;1.27;;
28296;SDS011;62078;49.366;8.172;2023-04-03T01:51:28;2.58;;;1.42;;
28296;SDS011;62078;49.366;8.172;2023-04-03T01:53:55;3.00;;;1.10;;
28296;SDS011;62078;49.366;8.172;2023-04-03T01:56:21;3.13;;;1.40;;
28296;SDS011;62078;49.366;8.172;2023-04-03T01:58:47;2.38;;;1.17;;
28296;SDS011;62078;49.366;8.172;2023-04-03T02:01:13;2.33;;;1.25;;
28296;SDS011;62078;49.366;8.172;2023-04-03T02:03:40;4.47;;;1.33;;
28296;SDS011;62078;49.366;8.172;2023-04-03T02:06:06;2.70;;;1.15;;
28296;SDS011;62078;49.366;8.172;2023-04-03T02:08:32;2.22;;;1.25;;
28296;SDS011;62078;49.366;8.172;2023-04-03T02:10:57;4.32;;;1.40;;
28296;SDS011;62078;49.366;8.172;2023-04-03T02:13:23;3.03;;;1.30;;
28296;SDS011;62078;49.366;8.172;2023-04-03T02:15:49;3.42;;;1.50;;
28296;SDS011;62078;49.366;8.172;2023-04-03T02:18:15;5.70;;;1.70;;
28296;SDS011;62078;49.366;8.172;2023-04-03T02:20:41;3.75;;;1.48;;
28296;SDS011;62078;49.366;8.172;2023-04-03T02:23:07;2.78;;;1.23;;
28296;SDS011;62078;49.366;8.172;2023-04-03T02:25:34;2.95;;;1.10;;
28296;SDS011;62078;49.366;8.172;2023-04-03T02:27:59;3.63;;;1.23;;
28296;SDS011;62078;49.366;8.172;2023-04-03T02:30:25;4.68;;;1.60;;
28296;SDS011;62078;49.366;8.172;2023-04-03T02:32:51;3.65;;;1.30;;
28296;SDS011;62078;49.366;8.172;2023-04-03T02:35:19;2.10;;;1.25;;
28296;SDS011;62078;49.366;8.172;2023-04-03T02:37:45;3.45;;;1.20;;
28296;SDS011;62078;49.366;8.172;2023-04-03T02:40:11;4.13;;;1.45;;
28296;SDS011;62078;49.366;8.172;2023-04-03T02:42:37;7.75;;;1.60;;
28296;SDS011;62078;49.366;8.172;2023-04-03T02:45:03;3.50;;;1.50;;
28296;SDS011;62078;49.366;8.172;2023-04-03T02:47:29;3.97;;;1.65;;
28296;SDS011;62078;49.366;8.172;2023-04-03T02:49:55;5.50;;;1.65;;
28296;SDS011;62078;49.366;8.172;2023-04-03T02:52:21;9.82;;;2.08;;
28296;SDS011;62078;49.366;8.172;2023-04-03T02:54:47;8.05;;;1.58;;
28296;SDS011;62078;49.366;8.172;2023-04-03T02:57:13;4.30;;;1.70;;
28296;SDS011;62078;49.366;8.172;2023-04-03T02:59:39;8.32;;;1.50;;
28296;SDS011;62078;49.366;8.172;2023-04-03T03:02:06;6.13;;;1.77;;
28296;SDS011;62078;49.366;8.172;2023-04-03T03:04:33;5.65;;;1.35;;
28296;SDS011;62078;49.366;8.172;2023-04-03T03:06:59;3.60;;;1.58;;
28296;SDS011;62078;49.366;8.172;2023-04-03T03:09:25;9.35;;;2.08;;
28296;SDS011;62078;49.366;8.172;2023-04-03T03:11:51;6.15;;;1.52;;
28296;SDS011;62078;49.366;8.172;2023-04-03T03:14:17;5.47;;;1.63;;
28296;SDS011;62078;49.366;8.172;2023-04-03T03:16:43;4.55;;;1.30;;
28296;SDS011;62078;49.366;8.172;2023-04-03T03:19:09;3.25;;;1.60;;
28296;SDS011;62078;49.366;8.172;2023-04-03T03:21:35;11.82;;;1.58;;
28296;SDS011;62078;49.366;8.172;2023-04-03T03:24:01;7.35;;;1.65;;
28296;SDS011;62078;49.366;8.172;2023-04-03T03:26:27;6.80;;;1.45;;
28296;SDS011;62078;49.366;8.172;2023-04-03T03:28:54;6.68;;;1.60;;
28296;SDS011;62078;49.366;8.172;2023-04-03T03:31:20;13.60;;;1.50;;
28296;SDS011;62078;49.366;8.172;2023-04-03T03:33:46;5.90;;;1.15;;
28296;SDS011;62078;49.366;8.172;2023-04-03T03:36:12;7.90;;;1.73;;
28296;SDS011;62078;49.366;8.172;2023-04-03T03:38:38;7.43;;;1.98;;
28296;SDS011;62078;49.366;8.172;2023-04-03T03:41:04;8.73;;;1.65;;
28296;SDS011;62078;49.366;8.172;2023-04-03T03:43:30;8.25;;;2.55;;
28296;SDS011;62078;49.366;8.172;2023-04-03T03:45:55;7.03;;;1.70;;
28296;SDS011;62078;49.366;8.172;2023-04-03T03:48:21;9.77;;;1.80;;
28296;SDS011;62078;49.366;8.172;2023-04-03T03:50:48;9.52;;;1.98;;
28296;SDS011;62078;49.366;8.172;2023-04-03T03:53:14;18.00;;;2.53;;
28296;SDS011;62078;49.366;8.172;2023-04-03T03:55:40;10.27;;;2.28;;
28296;SDS011;62078;49.366;8.172;2023-04-03T03:58:06;10.00;;;2.28;;
28296;SDS011;62078;49.366;8.172;2023-04-03T04:00:32;10.18;;;2.00;;
28296;SDS011;62078;49.366;8.172;2023-04-03T04:02:58;7.65;;;1.88;;
28296;SDS011;62078;49.366;8.172;2023-04-03T04:05:24;10.55;;;1.90;;
28296;SDS011;62078;49.366;8.172;2023-04-03T04:07:50;6.03;;;1.40;;
28296;SDS011;62078;49.366;8.172;2023-04-03T04:10:16;10.50;;;1.80;;
28296;SDS011;62078;49.366;8.172;2023-04-03T04:12:42;11.27;;;2.25;;
28296;SDS011;62078;49.366;8.172;2023-04-03T04:15:08;7.18;;;1.55;;
28296;SDS011;62078;49.366;8.172;2023-04-03T04:17:34;5.32;;;1.38;;
28296;SDS011;62078;49.366;8.172;2023-04-03T04:20:00;6.53;;;1.88;;
28296;SDS011;62078;49.366;8.172;2023-04-03T04:22:27;5.00;;;1.38;;
28296;SDS011;62078;49.366;8.172;2023-04-03T04:24:53;7.28;;;2.00;;
28296;SDS011;62078;49.366;8.172;2023-04-03T04:27:19;9.90;;;1.83;;
28296;SDS011;62078;49.366;8.172;2023-04-03T04:29:45;9.80;;;2.20;;
28296;SDS011;62078;49.366;8.172;2023-04-03T04:32:11;13.77;;;1.80;;
28296;SDS011;62078;49.366;8.172;2023-04-03T04:34:36;20.65;;;2.28;;
28296;SDS011;62078;49.366;8.172;2023-04-03T04:37:02;10.60;;;2.00;;
28296;SDS011;62078;49.366;8.172;2023-04-03T04:39:28;13.25;;;1.95;;
28296;SDS011;62078;49.366;8.172;2023-04-03T04:41:54;10.88;;;2.08;;
28296;SDS011;62078;49.366;8.172;2023-04-03T04:44:20;13.98;;;2.13;;
28296;SDS011;62078;49.366;8.172;2023-04-03T04:46:46;12.07;;;2.20;;
28296;SDS011;62078;49.366;8.172;2023-04-03T04:49:12;8.48;;;2.30;;
28296;SDS011;62078;49.366;8.172;2023-04-03T04:51:37;12.32;;;2.00;;
28296;SDS011;62078;49.366;8.172;2023-04-03T04:54:03;13.93;;;1.73;;
28296;SDS011;62078;49.366;8.172;2023-04-03T04:56:29;12.70;;;2.15;;
28296;SDS011;62078;49.366;8.172;2023-04-03T04:58:55;16.10;;;2.35;;
28296;SDS011;62078;49.366;8.172;2023-04-03T05:01:21;11.20;;;2.00;;
28296;SDS011;62078;49.366;8.172;2023-04-03T05:03:47;13.25;;;2.00;;
28296;SDS011;62078;49.366;8.172;2023-04-03T05:06:13;19.65;;;2.92;;
28296;SDS011;62078;49.366;8.172;2023-04-03T05:08:39;11.50;;;2.25;;
28296;SDS011;62078;49.366;8.172;2023-04-03T05:11:05;12.35;;;2.58;;
28296;SDS011;62078;49.366;8.172;2023-04-03T05:13:31;18.63;;;2.38;;
28296;SDS011;62078;49.366;8.172;2023-04-03T05:15:57;12.70;;;2.15;;
28296;SDS011;62078;49.366;8.172;2023-04-03T05:18:22;12.32;;;2.30;;
28296;SDS011;62078;49.366;8.172;2023-04-03T05:20:49;14.07;;;2.35;;
28296;SDS011;62078;49.366;8.172;2023-04-03T05:23:15;10.65;;;2.40;;
28296;SDS011;62078;49.366;8.172;2023-04-03T05:25:42;10.27;;;2.33;;
28296;SDS011;62078;49.366;8.172;2023-04-03T05:28:10;13.43;;;2.38;;
28296;SDS011;62078;49.366;8.172;2023-04-03T05:30:36;12.00;;;2.33;;
28296;SDS011;62078;49.366;8.172;2023-04-03T05:33:02;10.90;;;2.22;;
28296;SDS011;62078;49.366;8.172;2023-04-03T05:35:28;17.02;;;2.95;;
28296;SDS011;62078;49.366;8.172;2023-04-03T05:37:54;13.90;;;3.33;;
28296;SDS011;62078;49.366;8.172;2023-04-03T05:40:20;33.05;;;8.90;;
28296;SDS011;62078;49.366;8.172;2023-04-03T05:42:46;27.52;;;6.15;;
28296;SDS011;62078;49.366;8.172;2023-04-03T05:45:12;10.70;;;3.70;;
28296;SDS011;62078;49.366;8.172;2023-04-03T05:47:37;23.60;;;4.88;;
28296;SDS011;62078;49.366;8.172;2023-04-03T05:50:03;17.33;;;4.45;;
28296;SDS011;62078;49.366;8.172;2023-04-03T05:52:31;24.20;;;5.25;;
28296;SDS011;62078;49.366;8.172;2023-04-03T05:55:01;28.05;;;6.00;;
28296;SDS011;62078;49.366;8.172;2023-04-03T05:57:27;18.30;;;5.40;;
28296;SDS011;62078;49.366;8.172;2023-04-03T05:59:53;21.33;;;5.80;;
28296;SDS011;62078;49.366;8.172;2023-04-03T06:02:20;23.55;;;5.47;;
28296;SDS011;62078;49.366;8.172;2023-04-03T06:04:47;18.85;;;5.80;;
28296;SDS011;62078;49.366;8.172;2023-04-03T06:07:15;19.38;;;5.13;;
28296;SDS011;62078;49.366;8.172;2023-04-03T06:09:42;22.58;;;5.53;;
28296;SDS011;62078;49.366;8.172;2023-04-03T06:12:09;18.38;;;4.30;;
28296;SDS011;62078;49.366;8.172;2023-04-03T06:14:35;13.98;;;4.32;;
28296;SDS011;62078;49.366;8.172;2023-04-03T06:17:01;12.02;;;3.85;;
28296;SDS011;62078;49.366;8.172;2023-04-03T06:19:27;16.55;;;3.95;;
28296;SDS011;62078;49.366;8.172;2023-04-03T06:21:54;14.40;;;3.80;;
28296;SDS011;62078;49.366;8.172;2023-04-03T06:24:20;12.70;;;3.75;;
28296;SDS011;62078;49.366;8.172;2023-04-03T06:26:48;10.68;;;3.40;;
28296;SDS011;62078;49.366;8.172;2023-04-03T06:29:16;9.27;;;3.35;;
28296;SDS011;62078;49.366;8.172;2023-04-03T06:31:43;12.35;;;3.60;;
28296;SDS011;62078;49.366;8.172;2023-04-03T06:34:09;10.77;;;2.70;;
28296;SDS011;62078;49.366;8.172;2023-04-03T06:36:36;10.02;;;2.65;;
28296;SDS011;62078;49.366;8.172;2023-04-03T06:39:03;10.15;;;2.45;;
28296;SDS011;62078;49.366;8.172;2023-04-03T06:41:30;17.48;;;2.85;;
28296;SDS011;62078;49.366;8.172;2023-04-03T06:43:56;8.80;;;2.38;;
28296;SDS011;62078;49.366;8.172;2023-04-03T06:46:23;7.13;;;2.13;;
28296;SDS011;62078;49.366;8.172;2023-04-03T06:48:50;9.20;;;2.50;;
28296;SDS011;62078;49.366;8.172;2023-04-03T06:51:20;9.77;;;2.40;;
28296;SDS011;62078;49.366;8.172;2023-04-03T06:53:51;9.73;;;2.08;;
28296;SDS011;62078;49.366;8.172;2023-04-03T06:56:18;9.52;;;2.28;;
28296;SDS011;62078;49.366;8.172;2023-04-03T06:58:45;9.90;;;2.60;;
28296;SDS011;62078;49.366;8.172;2023-04-03T07:01:12;8.98;;;2.33;;
28296;SDS011;62078;49.366;8.172;2023-04-03T07:03:39;7.78;;;2.38;;
28296;SDS011;62078;49.366;8.172;2023-04-03T07:06:05;4.95;;;1.67;;
28296;SDS011;62078;49.366;8.172;2023-04-03T07:08:33;7.85;;;2.10;;
28296;SDS011;62078;49.366;8.172;2023-04-03T07:10:59;6.03;;;2.15;;
28296;SDS011;62078;49.366;8.172;2023-04-03T07:13:26;6.47;;;1.90;;
28296;SDS011;62078;49.366;8.172;2023-04-03T07:15:52;9.05;;;2.22;;
28296;SDS011;62078;49.366;8.172;2023-04-03T07:18:18;7.13;;;2.00;;
28296;SDS011;62078;49.366;8.172;2023-04-03T07:20:44;5.10;;;1.98;;
28296;SDS011;62078;49.366;8.172;2023-04-03T07:23:10;9.90;;;2.13;;
28296;SDS011;62078;49.366;8.172;2023-04-03T07:25:37;4.65;;;1.77;;
28296;SDS011;62078;49.366;8.172;2023-04-03T07:28:07;8.27;;;1.95;;
28296;SDS011;62078;49.366;8.172;2023-04-03T07:30:33;10.63;;;1.98;;
28296;SDS011;62078;49.366;8.172;2023-04-03T07:33:00;6.93;;;1.80;;
28296;SDS011;62078;49.366;8.172;2023-04-03T07:35:25;7.50;;;1.83;;
28296;SDS011;62078;49.366;8.172;2023-04-03T07:37:52;6.95;;;1.83;;
28296;SDS011;62078;49.366;8.172;2023-04-03T07:40:18;5.97;;;1.70;;
28296;SDS011;62078;49.366;8.172;2023-04-03T07:42:44;6.50;;;2.10;;
28296;SDS011;62078;49.366;8.172;2023-04-03T07:45:10;8.10;;;1.70;;
28296;SDS011;62078;49.366;8.172;2023-04-03T07:47:36;7.95;;;2.20;;
28296;SDS011;62078;49.366;8.172;2023-04-03T07:50:02;5.57;;;2.08;;
28296;SDS011;62078;49.366;8.172;2023-04-03T07:52:28;7.03;;;1.63;;
28296;SDS011;62078;49.366;8.172;2023-04-03T07:54:54;5.25;;;1.77;;
28296;SDS011;62078;49.366;8.172;2023-04-03T07:57:20;5.03;;;2.00;;
28296;SDS011;62078;49.366;8.172;2023-04-03T07:59:45;5.07;;;1.50;;
28296;SDS011;62078;49.366;8.172;2023-04-03T08:02:11;4.95;;;1.73;;
28296;SDS011;62078;49.366;8.172;2023-04-03T08:04:37;5.18;;;1.95;;
28296;SDS011;62078;49.366;8.172;2023-04-03T08:07:04;8.23;;;1.73;;
28296;SDS011;62078;49.366;8.172;2023-04-03T08:09:30;7.25;;;1.77;;
28296;SDS011;62078;49.366;8.172;2023-04-03T08:11:57;6.97;;;1.67;;
28296;SDS011;62078;49.366;8.172;2023-04-03T08:14:23;6.93;;;1.90;;
28296;SDS011;62078;49.366;8.172;2023-04-03T08:16:49;4.55;;;1.70;;
28296;SDS011;62078;49.366;8.172;2023-04-03T08:19:15;4.25;;;1.75;;
28296;SDS011;62078;49.366;8.172;2023-04-03T08:21:43;9.00;;;2.22;;
28296;SDS011;62078;49.366;8.172;2023-04-03T08:24:09;3.80;;;1.42;;
28296;SDS011;62078;49.366;8.172;2023-04-03T08:26:35;4.38;;;1.58;;
28296;SDS011;62078;49.366;8.172;2023-04-03T08:29:01;5.45;;;1.63;;
28296;SDS011;62078;49.366;8.172;2023-04-03T08:31:27;6.13;;;1.73;;
28296;SDS011;62078;49.366;8.172;2023-04-03T08:33:53;4.60;;;1.67;;
28296;SDS011;62078;49.366;8.172;2023-04-03T08:36:20;5.43;;;2.08;;
28296;SDS011;62078;49.366;8.172;2023-04-03T08:38:51;3.58;;;1.25;;
28296;SDS011;62078;49.366;8.172;2023-04-03T08:49:24;4.40;;;1.50;;
28296;SDS011;62078;49.366;8.172;2023-04-03T08:52:25;3.50;;;1.30;;
28296;SDS011;62078;49.366;8.172;2023-04-03T08:55:13;6.47;;;1.60;;
28296;SDS011;62078;49.366;8.172;2023-04-03T08:57:48;4.65;;;1.23;;
28296;SDS011;62078;49.366;8.172;2023-04-03T09:00:23;4.90;;;1.30;;
28296;SDS011;62078;49.366;8.172;2023-04-03T09:02:51;5.65;;;1.35;;
28296;SDS011;62078;49.366;8.172;2023-04-03T09:08:23;5.95;;;1.50;;
28296;SDS011;62078;49.366;8.172;2023-04-03T09:11:16;3.88;;;1.33;;
28296;SDS011;62078;49.366;8.172;2023-04-03T09:17:06;6.38;;;1.40;;
28296;SDS011;62078;49.366;8.172;2023-04-03T09:19:43;3.45;;;1.13;;
28296;SDS011;62078;49.366;8.172;2023-04-03T09:22:38;4.57;;;1.27;;
28296;SDS011;62078;49.366;8.172;2023-04-03T09:27:42;5.68;;;1.50;;
28296;SDS011;62078;49.366;8.172;2023-04-03T09:30:15;5.72;;;1.60;;
28296;SDS011;62078;49.366;8.172;2023-04-03T09:32:44;3.80;;;1.55;;
28296;SDS011;62078;49.366;8.172;2023-04-03T09:35:31;4.75;;;1.70;;
28296;SDS011;62078;49.366;8.172;2023-04-03T09:40:41;3.13;;;1.27;;
28296;SDS011;62078;49.366;8.172;2023-04-03T09:45:54;4.13;;;1.45;;
28296;SDS011;62078;49.366;8.172;2023-04-03T09:48:40;4.03;;;1.30;;
28296;SDS011;62078;49.366;8.172;2023-04-03T09:51:21;3.75;;;1.60;;
28296;SDS011;62078;49.366;8.172;2023-04-03T09:53:52;4.93;;;1.73;;
28296;SDS011;62078;49.366;8.172;2023-04-03T09:56:19;3.95;;;1.55;;
28296;SDS011;62078;49.366;8.172;2023-04-03T09:58:49;3.72;;;1.33;;
28296;SDS011;62078;49.366;8.172;2023-04-03T10:06:35;3.80;;;1.20;;
28296;SDS011;62078;49.366;8.172;2023-04-03T10:09:17;3.30;;;1.25;;
28296;SDS011;62078;49.366;8.172;2023-04-03T10:12:03;2.78;;;1.27;;
28296;SDS011;62078;49.366;8.172;2023-04-03T10:14:30;3.95;;;1.40;;
28296;SDS011;62078;49.366;8.172;2023-04-03T10:17:19;4.38;;;1.70;;
28296;SDS011;62078;49.366;8.172;2023-04-03T10:49:32;4.68;;;1.80;;
28296;SDS011;62078;49.366;8.172;2023-04-03T10:57:45;4.47;;;1.60;;
28296;SDS011;62078;49.366;8.172;2023-04-03T11:02:50;4.05;;;1.40;;
28296;SDS011;62078;49.366;8.172;2023-04-03T11:05:26;5.40;;;1.70;;
28296;SDS011;62078;49.366;8.172;2023-04-03T11:11:07;2.38;;;1.33;;
28296;SDS011;62078;49.366;8.172;2023-04-03T11:13:45;4.00;;;1.35;;
28296;SDS011;62078;49.366;8.172;2023-04-03T11:16:40;6.22;;;1.73;;
28296;SDS011;62078;49.366;8.172;2023-04-03T11:21:40;4.97;;;1.55;;
28296;SDS011;62078;49.366;8.172;2023-04-03T11:24:20;4.05;;;1.60;;
28296;SDS011;62078;49.366;8.172;2023-04-03T11:26:50;4.55;;;1.13;;
28296;SDS011;62078;49.366;8.172;2023-04-03T11:29:18;5.93;;;1.52;;
28296;SDS011;62078;49.366;8.172;2023-04-03T11:39:46;4.20;;;1.35;;
28296;SDS011;62078;49.366;8.172;2023-04-03T11:42:29;6.85;;;1.38;;
28296;SDS011;62078;49.366;8.172;2023-04-03T11:47:48;2.83;;;1.20;;
28296;SDS011;62078;49.366;8.172;2023-04-03T12:29:47;4.40;;;1.05;;
28296;SDS011;62078;49.366;8.172;2023-04-03T12:44:07;4.10;;;1.48;;
28296;SDS011;62078;49.366;8.172;2023-04-03T12:46:58;3.17;;;1.33;;
28296;SDS011;62078;49.366;8.172;2023-04-03T12:49:39;6.72;;;1.40;;
28296;SDS011;62078;49.366;8.172;2023-04-03T12:52:18;2.38;;;1.05;;
28296;SDS011;62078;49.366;8.172;2023-04-03T12:54:55;3.55;;;1.05;;
28296;SDS011;62078;49.366;8.172;2023-04-03T12:57:25;3.22;;;1.13;;
28296;SDS011;62078;49.366;8.172;2023-04-03T12:59:55;3.33;;;1.20;;
28296;SDS011;62078;49.366;8.172;2023-04-03T13:02:26;5.72;;;1.40;;
28296;SDS011;62078;49.366;8.172;2023-04-03T13:04:56;3.65;;;1.30;;
28296;SDS011;62078;49.366;8.172;2023-04-03T13:07:25;4.60;;;1.65;;
28296;SDS011;62078;49.366;8.172;2023-04-03T13:09:57;4.72;;;1.50;;
28296;SDS011;62078;49.366;8.172;2023-04-03T13:12:24;2.90;;;1.10;;
28296;SDS011;62078;49.366;8.172;2023-04-03T13:14:55;5.63;;;1.63;;
28296;SDS011;62078;49.366;8.172;2023-04-03T13:17:23;2.97;;;1.10;;
28296;SDS011;62078;49.366;8.172;2023-04-03T13:19:50;4.80;;;1.63;;
28296;SDS011;62078;49.366;8.172;2023-04-03T13:24:55;3.88;;;1.30;;
28296;SDS011;62078;49.366;8.172;2023-04-03T13:27:24;2.58;;;1.17;;
28296;SDS011;62078;49.366;8.172;2023-04-03T13:29:52;3.33;;;1.27;;
28296;SDS011;62078;49.366;8.172;2023-04-03T13:32:21;4.50;;;1.60;;
28296;SDS011;62078;49.366;8.172;2023-04-03T13:34:50;4.60;;;1.50;;
28296;SDS011;62078;49.366;8.172;2023-04-03T13:37:20;3.47;;;1.20;;
28296;SDS011;62078;49.366;8.172;2023-04-03T13:42:34;3.17;;;1.20;;
28296;SDS011;62078;49.366;8.172;2023-04-03T13:47:45;2.55;;;1.00;;
28296;SDS011;62078;49.366;8.172;2023-04-03T13:50:20;3.30;;;1.23;;
28296;SDS011;62078;49.366;8.172;2023-04-03T13:53:00;3.50;;;1.20;;
28296;SDS011;62078;49.366;8.172;2023-04-03T13:55:32;3.13;;;1.30;;
28296;SDS011;62078;49.366;8.172;2023-04-03T13:58:02;2.83;;;1.15;;
28296;SDS011;62078;49.366;8.172;2023-04-03T14:00:50;2.92;;;1.60;;
28296;SDS011;62078;49.366;8.172;2023-04-03T14:03:29;3.08;;;1.30;;
28296;SDS011;62078;49.366;8.172;2023-04-03T14:05:58;5.30;;;1.33;;
28296;SDS011;62078;49.366;8.172;2023-04-03T14:08:25;4.68;;;1.55;;
28296;SDS011;62078;49.366;8.172;2023-04-03T14:10:52;3.60;;;1.30;;
28296;SDS011;62078;49.366;8.172;2023-04-03T14:13:19;5.03;;;1.55;;
28296;SDS011;62078;49.366;8.172;2023-04-03T14:15:46;5.63;;;1.70;;
28296;SDS011;62078;49.366;8.172;2023-04-03T14:18:14;5.43;;;1.92;;
28296;SDS011;62078;49.366;8.172;2023-04-03T14:20:41;4.53;;;1.67;;
28296;SDS011;62078;49.366;8.172;2023-04-03T14:23:08;5.20;;;1.73;;
28296;SDS011;62078;49.366;8.172;2023-04-03T14:25:34;4.38;;;1.60;;
